Jennings, Missouri
Current Conditions -  °F | °C
As of 11:51 AM on Tuesday 21 Oct 2014 (Local Time) from KSTL Reporting Station
Clear Clear  
Wind Chill: 63°   Ceiling: Unl
Heat Index: 63°   Visibility: 10mi
Dew Point: 46°   Wind: 6mph
Humidity: 54%   Direction: NA
Pressure: 30.15"   Gusts: NA
Location:  38.72°N, 90.25°W
Report Text: KSTL 211651Z VRB05KT 10SM CLR 17/08 A3015 RMK AO2 SLP206 T01720078
Loading
Personal Weather Stations






























Interactive Weather Map
Tropical Storm Tracking
New forecast layout! Learn more

10-Day Weather Forecast

Advertisements
Track Severe Weather on mobile